Time;durP1;ratioP1;P1;durP2;ratioP2;P2;SDS_P1;SDS_P2;PMS_P1;PMS_P2;Temp;Humidity;BMP_temperature;BMP_pressure;BME280_temperature;BME280_humidity;BME280_pressure;Samples;Min_cycle;Max_cycle;Signal;HPM_P1;HPM_P2
2023/03/14 00:02:21;;;;;;;;;2.00;0.67;;;;;12.75;100.00;98896.19;5002789;28;45441;-75
2023/03/14 00:04:47;;;;;;;;;4.00;1.67;;;;;12.72;100.00;98899.47;5006319;28;45592;-76
2023/03/14 00:07:13;;;;;;;;;0.33;0.33;;;;;12.66;100.00;98886.78;5005943;28;45399;-77
2023/03/14 00:09:40;;;;;;;;;0.00;0.00;;;;;12.56;100.00;98879.34;5009374;28;45430;-78
2023/03/14 00:12:07;;;;;;;;;0.67;0.00;;;;;12.70;100.00;98896.16;5007410;28;45355;-75
2023/03/14 00:14:33;;;;;;;;;0.00;0.00;;;;;12.51;100.00;98852.66;5008972;28;46325;-78
2023/03/14 00:16:58;;;;;;;;;0.00;0.00;;;;;12.69;100.00;98876.09;4999675;28;45345;-80
2023/03/14 00:19:24;;;;;;;;;1.67;0.67;;;;;12.67;100.00;98875.53;5004787;28;45828;-76
2023/03/14 00:21:49;;;;;;;;;3.33;1.00;;;;;12.67;100.00;98875.53;5006326;28;45476;-76
2023/03/14 00:24:15;;;;;;;;;0.00;0.00;;;;;12.67;100.00;98871.94;5003192;28;45853;-76
2023/03/14 00:26:40;;;;;;;;;4.00;0.00;;;;;12.65;100.00;98874.13;4986081;28;47350;-76
2023/03/14 00:29:05;;;;;;;;;0.00;0.00;;;;;12.64;100.00;98865.06;5011759;28;45793;-76
2023/03/14 00:31:31;;;;;;;;;0.00;0.00;;;;;12.62;100.00;98869.16;5004952;28;45439;-76
2023/03/14 00:33:57;;;;;;;;;1.00;0.00;;;;;12.66;100.00;98856.53;5000834;28;45800;-78
2023/03/14 00:36:23;;;;;;;;;0.00;0.00;;;;;12.67;100.00;98860.97;5006720;28;46866;-76
2023/03/14 00:38:50;;;;;;;;;0.67;0.00;;;;;12.70;100.00;98863.16;5003533;28;45644;-77
2023/03/14 00:41:19;;;;;;;;;1.00;1.00;;;;;12.74;100.00;98856.03;4981476;28;45357;-76
2023/03/14 00:43:45;;;;;;;;;0.00;0.00;;;;;12.73;100.00;98857.13;4999517;28;45638;-78
2023/03/14 00:46:12;;;;;;;;;0.00;0.00;;;;;12.77;100.00;98854.66;5001641;28;45569;-77
2023/03/14 00:48:38;;;;;;;;;0.67;0.00;;;;;12.76;100.00;98848.31;4999261;28;44891;-76
2023/03/14 00:51:05;;;;;;;;;0.00;0.00;;;;;12.74;100.00;98845.03;5002944;28;45784;-77
2023/03/14 00:53:30;;;;;;;;;0.33;0.33;;;;;12.73;100.00;98842.56;4996021;28;45615;-76
2023/03/14 00:55:56;;;;;;;;;0.67;0.67;;;;;12.83;100.00;98851.66;4984875;28;46239;-76
2023/03/14 00:58:22;;;;;;;;;0.67;0.00;;;;;12.84;100.00;98847.81;4999026;28;45672;-78
2023/03/14 01:00:47;;;;;;;;;0.00;0.00;;;;;12.88;100.00;98848.91;5000529;28;45827;-76
2023/03/14 01:03:14;;;;;;;;;3.00;0.00;;;;;12.85;100.00;98852.19;4980833;28;47062;-77
2023/03/14 01:05:40;;;;;;;;;0.67;0.00;;;;;12.78;100.00;98843.38;4989585;28;45881;-74
2023/03/14 01:08:07;;;;;;;;;0.00;0.00;;;;;12.79;100.00;98849.72;4993792;28;46255;-76
2023/03/14 01:10:33;;;;;;;;;2.33;0.00;;;;;12.79;100.00;98858.78;4991197;28;45358;-76
2023/03/14 01:12:59;;;;;;;;;0.00;0.00;;;;;12.76;100.00;98864.00;4998193;28;45351;-74
2023/03/14 01:15:24;;;;;;;;;1.33;0.00;;;;;12.70;100.00;98847.47;4998202;28;45466;-76
2023/03/14 01:17:50;;;;;;;;;1.00;0.00;;;;;12.76;100.00;98859.34;4997348;28;45588;-76
2023/03/14 01:20:16;;;;;;;;;0.67;0.67;;;;;12.58;100.00;98833.13;4993147;28;45375;-77
2023/03/14 01:22:43;;;;;;;;;1.33;0.00;;;;;12.77;100.00;98861.00;5010287;28;45367;-77
2023/03/14 01:25:11;;;;;;;;;0.00;0.00;;;;;12.80;100.00;98856.84;5000275;28;46914;-77
2023/03/14 01:27:36;;;;;;;;;0.67;0.67;;;;;12.81;100.00;98858.50;5005859;28;45356;-75
2023/03/14 01:30:03;;;;;;;;;0.00;0.00;;;;;12.84;100.00;98847.81;4998120;28;45659;-78
2023/03/14 01:32:29;;;;;;;;;2.33;0.33;;;;;12.84;100.00;98861.56;4997095;28;45572;-77
2023/03/14 01:34:54;;;;;;;;;2.67;1.00;;;;;12.86;100.00;98859.38;4979610;28;46429;-77
2023/03/14 01:37:20;;;;;;;;;1.33;0.33;;;;;12.87;100.00;98855.53;4978511;28;45455;-76
2023/03/14 01:39:46;;;;;;;;;2.33;1.67;;;;;12.87;100.00;98849.19;4998553;28;45367;-77
2023/03/14 01:42:12;;;;;;;;;0.67;0.00;;;;;12.82;100.00;98841.75;4994851;28;47467;-76
2023/03/14 01:45:00;;;;;;;;;4.00;0.67;;;;;12.87;100.00;98844.53;4996203;28;46186;-78
2023/03/14 01:47:26;;;;;;;;;0.33;0.33;;;;;12.90;100.00;98848.63;5000168;28;45489;-77
2023/03/14 01:49:59;;;;;;;;;2.67;0.67;;;;;12.87;100.00;98855.53;5007184;28;45822;-77
2023/03/14 01:52:41;;;;;;;;;3.00;0.67;;;;;12.76;100.00;98840.06;4996074;28;45682;-77
2023/03/14 01:55:13;;;;;;;;;0.00;0.00;;;;;12.89;100.00;98853.31;4990214;28;46203;-77
2023/03/14 01:58:00;;;;;;;;;2.00;0.33;;;;;12.88;100.00;98859.09;5009922;28;45676;-76
2023/03/14 02:00:26;;;;;;;;;0.00;0.00;;;;;12.87;100.00;98854.69;4979968;28;45473;-76
2023/03/14 02:02:57;;;;;;;;;2.33;0.33;;;;;12.86;100.00;98848.38;4978899;28;47180;-76
2023/03/14 02:05:32;;;;;;;;;0.00;0.00;;;;;12.84;100.00;98845.06;4979793;28;47388;-75
2023/03/14 02:08:00;;;;;;;;;2.00;0.00;;;;;12.88;100.00;98854.41;4990598;28;45663;-77
2023/03/14 02:10:30;;;;;;;;;0.00;0.00;;;;;12.86;100.00;98848.38;5003003;28;45614;-76
2023/03/14 02:12:59;;;;;;;;;0.33;0.33;;;;;12.86;100.00;98861.31;5000765;28;45735;-77
2023/03/14 02:15:25;;;;;;;;;0.00;0.00;;;;;12.86;100.00;98864.88;4992852;28;46515;-76
2023/03/14 02:17:52;;;;;;;;;0.67;0.67;;;;;12.83;100.00;98868.16;4997576;28;45354;-76
2023/03/14 02:20:42;;;;;;;;;2.33;0.00;;;;;12.83;100.00;98864.56;4996102;28;45420;-76
2023/03/14 02:23:08;;;;;;;;;0.00;0.00;;;;;12.81;100.00;98866.78;4986303;28;45813;-79
2023/03/14 02:25:51;;;;;;;;;0.00;0.00;;;;;12.74;100.00;98849.69;4965368;28;46025;-77
2023/03/14 02:28:17;;;;;;;;;0.00;0.00;;;;;12.74;100.00;98855.19;4986095;28;45451;-76
2023/03/14 02:30:43;;;;;;;;;2.67;0.00;;;;;12.75;100.00;98851.34;5005140;28;45627;-77
2023/03/14 02:33:20;;;;;;;;;0.00;0.00;;;;;12.74;100.00;98860.69;4999663;28;45720;-77
2023/03/14 02:35:48;;;;;;;;;0.00;0.00;;;;;12.75;100.00;98852.16;5012334;28;46647;-76
2023/03/14 02:38:41;;;;;;;;;0.00;0.00;;;;;12.81;100.00;98853.84;5009195;28;45574;-76
2023/03/14 02:41:08;;;;;;;;;0.00;0.00;;;;;12.82;100.00;98855.50;4994305;28;45560;-78
2023/03/14 02:43:33;;;;;;;;;0.33;0.00;;;;;12.80;100.00;98854.09;5009733;28;45466;-76
2023/03/14 02:46:01;;;;;;;;;1.00;0.00;;;;;12.73;100.00;98840.63;4979413;28;47504;-77
2023/03/14 02:48:42;;;;;;;;;1.67;0.00;;;;;12.83;100.00;98846.16;5007047;28;45756;-75
2023/03/14 02:51:08;;;;;;;;;0.00;0.00;;;;;12.76;100.00;98837.31;5000313;28;45788;-76
2023/03/14 02:53:36;;;;;;;;;1.00;0.00;;;;;12.81;100.00;98842.81;4996033;28;46279;-76
2023/03/14 02:56:02;;;;;;;;;0.00;0.00;;;;;12.81;100.00;98844.75;4983841;28;46204;-75
2023/03/14 02:58:29;;;;;;;;;1.00;1.00;;;;;12.78;100.00;98840.63;4998955;28;45788;-76
2023/03/14 03:00:54;;;;;;;;;0.67;0.00;;;;;12.76;100.00;98842.81;4997728;28;45471;-76
2023/03/14 03:03:20;;;;;;;;;0.00;0.00;;;;;12.79;100.00;98856.03;5005601;28;45306;-76
2023/03/14 03:05:50;;;;;;;;;0.67;0.00;;;;;12.70;100.00;98839.22;4995531;28;45725;-76
2023/03/14 03:08:16;;;;;;;;;0.00;0.00;;;;;12.76;100.00;98847.50;4997246;28;45390;-74
2023/03/14 03:10:41;;;;;;;;;0.00;0.00;;;;;12.75;100.00;98846.66;4999247;28;45485;-76
2023/03/14 03:13:07;;;;;;;;;0.00;0.00;;;;;12.75;100.00;98852.16;4997474;28;45709;-75
2023/03/14 03:15:32;;;;;;;;;0.33;0.00;;;;;12.75;100.00;98854.91;4998372;28;46395;-76
2023/03/14 03:17:58;;;;;;;;;0.67;0.00;;;;;12.71;100.00;98862.06;4981076;28;45424;-75
2023/03/14 03:20:23;;;;;;;;;0.00;0.00;;;;;12.67;100.00;98852.69;4978129;28;45537;-75
2023/03/14 03:22:49;;;;;;;;;0.67;0.00;;;;;12.72;100.00;98858.22;4996442;28;45567;-75
2023/03/14 03:25:15;;;;;;;;;0.00;0.00;;;;;12.70;100.00;98854.91;4994823;28;45456;-75
2023/03/14 03:27:40;;;;;;;;;0.00;0.00;;;;;12.72;100.00;98858.22;4996179;28;45687;-75
2023/03/14 03:30:07;;;;;;;;;1.00;0.00;;;;;12.68;100.00;98868.94;4996833;28;45575;-75
2023/03/14 03:32:32;;;;;;;;;0.00;0.00;;;;;12.57;100.00;98866.41;4995754;28;45550;-76
2023/03/14 03:34:58;;;;;;;;;0.00;0.00;;;;;12.64;100.00;98861.50;4997831;28;45681;-75
2023/03/14 03:37:24;;;;;;;;;0.00;0.00;;;;;12.65;100.00;98868.63;5000696;28;45441;-76
2023/03/14 03:39:52;;;;;;;;;0.00;0.00;;;;;12.65;100.00;98874.13;5003208;28;45527;-77
2023/03/14 03:42:18;;;;;;;;;0.00;0.00;;;;;12.64;100.00;98880.75;5002098;28;45406;-76
2023/03/14 03:44:44;;;;;;;;;0.00;0.00;;;;;12.62;100.00;98881.00;4999312;28;45782;-76
2023/03/14 03:47:09;;;;;;;;;0.00;0.00;;;;;12.59;100.00;98886.22;4996416;28;45736;-75
2023/03/14 03:49:35;;;;;;;;;0.00;0.00;;;;;12.59;100.00;98887.06;4992372;28;45441;-75
2023/03/14 03:52:00;;;;;;;;;0.00;0.00;;;;;12.57;100.00;98888.41;4977050;28;46772;-78
2023/03/14 03:54:26;;;;;;;;;0.00;0.00;;;;;12.58;100.00;98879.88;4988324;28;45825;-76
2023/03/14 03:56:51;;;;;;;;;0.00;0.00;;;;;12.66;100.00;98889.53;5000621;28;45391;-77
2023/03/14 03:59:18;;;;;;;;;9.33;8.33;;;;;12.66;100.00;98897.78;5003713;28;45452;-77
2023/03/14 04:01:43;;;;;;;;;1.33;0.00;;;;;12.67;100.00;98893.97;4997534;28;45422;-77
2023/03/14 04:04:09;;;;;;;;;0.00;0.00;;;;;12.71;100.00;98900.59;4995599;28;45618;-77
2023/03/14 04:06:34;;;;;;;;;0.00;0.00;;;;;12.69;100.00;98892.59;5009497;28;45341;-77
2023/03/14 04:09:00;;;;;;;;;0.00;0.00;;;;;12.71;100.00;98897.84;5001548;28;45636;-77
2023/03/14 04:11:26;;;;;;;;;0.00;0.00;;;;;12.71;100.00;98901.41;4996242;28;45900;-75
2023/03/14 04:13:51;;;;;;;;;0.67;0.00;;;;;12.71;100.00;98906.09;4995513;28;45479;-77
2023/03/14 04:16:19;;;;;;;;;0.00;0.00;;;;;12.71;100.00;98906.09;5012081;28;45407;-77
2023/03/14 04:18:45;;;;;;;;;0.00;0.00;;;;;12.73;100.00;98911.31;5003030;28;46051;-76
2023/03/14 04:21:10;;;;;;;;;0.00;0.00;;;;;12.69;100.00;98928.34;5003853;28;45284;-75
2023/03/14 04:23:36;;;;;;;;;0.00;0.00;;;;;12.67;100.00;98921.47;4978621;28;48322;-76
2023/03/14 04:26:02;;;;;;;;;0.00;0.00;;;;;12.61;100.00;98931.59;5000413;28;45355;-77
2023/03/14 04:28:28;;;;;;;;;0.00;0.00;;;;;12.60;100.00;98927.19;4975985;28;45759;-75
2023/03/14 04:30:54;;;;;;;;;0.00;0.00;;;;;12.62;100.00;98947.03;4995716;28;45446;-75
2023/03/14 04:33:19;;;;;;;;;0.67;0.00;;;;;12.59;100.00;98944.81;4996334;28;45317;-75
2023/03/14 04:35:45;;;;;;;;;0.00;0.00;;;;;12.57;100.00;98949.72;4999103;28;45422;-76
2023/03/14 04:38:11;;;;;;;;;0.00;0.00;;;;;12.50;100.00;98947.22;4998364;28;45852;-77
2023/03/14 04:40:38;;;;;;;;;0.00;0.00;;;;;12.44;100.00;98956.53;5012386;28;45856;-75
2023/03/14 04:43:04;;;;;;;;;0.00;0.00;;;;;12.35;100.00;98972.69;4983008;28;48524;-73
2023/03/14 04:45:29;;;;;;;;;0.00;0.00;;;;;12.35;100.00;98991.94;4984811;28;45477;-71
2023/03/14 04:47:54;;;;;;;;;0.67;0.00;;;;;12.30;100.00;99011.13;4999138;28;45483;-73
2023/03/14 04:50:20;;;;;;;;;0.00;0.00;;;;;12.28;100.00;99021.56;5013374;28;45467;-73
2023/03/14 04:52:45;;;;;;;;;0.33;0.00;;;;;12.18;100.00;99033.31;4999656;28;47150;-74
2023/03/14 04:55:11;;;;;;;;;1.00;1.00;;;;;12.11;100.00;99043.69;4986029;28;46856;-74
2023/03/14 04:57:37;;;;;;;;;0.00;0.00;;;;;12.03;100.00;99063.38;4993493;28;45871;-75
2023/03/14 05:00:06;;;;;;;;;1.00;1.00;;;;;11.87;100.00;99062.41;4990223;28;46878;-75
2023/03/14 05:02:31;;;;;;;;;2.67;0.33;;;;;11.90;100.00;99080.25;4995699;28;48101;-75
2023/03/14 05:04:57;;;;;;;;;4.00;1.33;;;;;11.80;100.00;99095.53;4996328;28;45766;-74
2023/03/14 05:07:22;;;;;;;;;1.00;0.00;;;;;11.81;100.00;99101.84;4997024;28;45610;-74
2023/03/14 05:09:48;;;;;;;;;3.00;2.00;;;;;11.74;100.00;99102.06;4997463;28;45922;-74
2023/03/14 05:12:13;;;;;;;;;2.00;2.00;;;;;11.69;100.00;99113.00;4999120;28;46275;-74
2023/03/14 05:14:39;;;;;;;;;1.33;1.33;;;;;11.62;100.00;99121.44;4997264;28;45863;-75
2023/03/14 05:17:04;;;;;;;;;1.67;1.67;;;;;11.57;100.00;99140.59;4997339;28;45488;-75
2023/03/14 05:19:30;;;;;;;;;2.00;2.00;;;;;11.55;100.00;99150.97;4996877;28;46700;-74
2023/03/14 05:21:55;;;;;;;;;2.67;2.00;;;;;11.58;100.00;99146.91;5005084;28;46400;-75
2023/03/14 05:24:21;;;;;;;;;3.33;2.00;;;;;11.51;100.00;99162.72;4997076;28;45497;-75
2023/03/14 05:26:46;;;;;;;;;2.33;2.00;;;;;11.51;100.00;99168.22;5002474;28;45336;-76
2023/03/14 05:29:12;;;;;;;;;4.33;3.00;;;;;11.46;100.00;99175.28;5001387;28;45717;-75
2023/03/14 05:31:37;;;;;;;;;5.33;4.00;;;;;11.43;100.00;99177.72;4995594;28;45864;-74
2023/03/14 05:34:03;;;;;;;;;5.67;3.00;;;;;11.42;100.00;99190.63;4997770;28;45661;-76
2023/03/14 05:36:28;;;;;;;;;6.00;4.00;;;;;11.36;100.00;99202.63;4999481;28;45584;-76
2023/03/14 05:38:53;;;;;;;;;5.00;4.33;;;;;11.29;100.00;99207.47;4976109;28;47400;-75
2023/03/14 05:41:19;;;;;;;;;5.00;2.00;;;;;11.34;100.00;99217.69;4977680;28;46168;-75
2023/03/14 05:43:46;;;;;;;;;3.33;2.00;;;;;11.36;100.00;99241.06;5008290;28;45852;-75
2023/03/14 05:46:11;;;;;;;;;5.00;3.00;;;;;11.36;100.00;99238.31;4993210;28;45369;-74
2023/03/14 05:48:37;;;;;;;;;5.67;2.00;;;;;11.34;100.00;99248.69;5012947;28;45699;-74
2023/03/14 05:51:02;;;;;;;;;3.33;2.00;;;;;11.24;100.00;99246.63;4996056;28;46251;-74
2023/03/14 05:53:29;;;;;;;;;0.00;0.00;;;;;11.27;100.00;99272.72;4995910;28;45866;-74
2023/03/14 05:55:56;;;;;;;;;3.00;3.00;;;;;11.17;100.00;99278.03;4999333;28;45779;-73
2023/03/14 05:58:21;;;;;;;;;4.00;2.00;;;;;11.26;100.00;99291.13;4994461;28;45996;-74
2023/03/14 06:00:48;;;;;;;;;6.00;3.00;;;;;11.05;100.00;99276.22;4997755;28;45643;-73
2023/03/14 06:03:13;;;;;;;;;6.00;3.67;;;;;11.10;100.00;99301.00;4993587;28;45340;-76
2023/03/14 06:05:39;;;;;;;;;3.33;3.00;;;;;11.10;100.00;99330.34;4999497;28;45450;-77
2023/03/14 06:08:04;;;;;;;;;3.00;3.00;;;;;11.02;100.00;99338.97;5015012;28;45778;-79
2023/03/14 06:10:30;;;;;;;;;1.00;1.00;;;;;10.90;100.00;99344.53;5004957;28;46602;-77
2023/03/14 06:12:55;;;;;;;;;5.67;5.00;;;;;10.79;100.00;99359.94;4996140;28;45703;-76
2023/03/14 06:15:21;;;;;;;;;4.00;2.00;;;;;10.73;100.00;99391.94;4985839;28;45451;-75
2023/03/14 06:17:46;;;;;;;;;4.00;3.00;;;;;10.65;100.00;99369.56;5006554;28;45488;-79
2023/03/14 06:20:12;;;;;;;;;5.00;3.00;;;;;10.58;100.00;99403.44;4996425;28;45636;-77
2023/03/14 06:22:38;;;;;;;;;7.00;3.33;;;;;10.53;100.00;99410.69;4999545;28;46230;-76
2023/03/14 06:25:04;;;;;;;;;4.33;3.67;;;;;10.50;100.00;99420.22;4997870;28;45752;-73
2023/03/14 06:27:29;;;;;;;;;4.00;4.00;;;;;10.47;100.00;99428.13;5008288;28;45384;-75
2023/03/14 06:29:55;;;;;;;;;6.67;3.00;;;;;10.40;100.00;99434.56;4981217;28;48647;-74
2023/03/14 06:32:20;;;;;;;;;4.33;3.00;;;;;10.38;100.00;99447.66;4987376;28;45625;-71
2023/03/14 06:34:46;;;;;;;;;4.00;2.00;;;;;10.40;100.00;99463.84;4990957;28;45422;-74
2023/03/14 06:37:12;;;;;;;;;7.33;3.00;;;;;10.40;100.00;99461.13;4980457;28;47293;-74
2023/03/14 06:39:38;;;;;;;;;5.00;5.00;;;;;10.33;100.00;99461.25;4995291;28;47550;-75
2023/03/14 06:42:04;;;;;;;;;4.00;2.33;;;;;10.30;100.00;99469.06;4997178;28;45382;-74
2023/03/14 06:44:30;;;;;;;;;7.00;5.00;;;;;10.54;100.00;99508.31;4996375;28;45447;-75
2023/03/14 06:46:55;;;;;;;;;4.00;4.00;;;;;10.61;100.00;99517.22;4991691;28;45565;-73
2023/03/14 06:49:21;;;;;;;;;4.00;3.00;;;;;10.69;100.00;99537.97;4996762;28;45578;-74
2023/03/14 06:51:46;;;;;;;;;4.67;4.67;;;;;10.89;100.00;99541.16;4997589;28;45489;-73
2023/03/14 06:54:12;;;;;;;;;4.00;3.00;;;;;11.00;100.00;99542.22;5000517;28;46015;-69
2023/03/14 06:56:37;;;;;;;;;4.00;3.00;;;;;11.11;100.00;99555.09;4994155;28;45496;-70
2023/03/14 06:59:03;;;;;;;;;2.00;2.00;;;;;11.27;100.00;99563.63;4996748;28;45840;-69
2023/03/14 07:01:32;;;;;;;;;4.33;3.00;;;;;11.40;100.00;99566.09;4992457;28;45755;-69
2023/03/14 07:03:58;;;;;;;;;4.00;2.00;;;;;11.47;100.00;99566.81;4993675;28;45685;-68
2023/03/14 07:06:23;;;;;;;;;1.67;1.67;;;;;11.58;100.00;99588.97;5099997;22;45702;-69
2023/03/14 07:08:49;;;;;;;;;5.33;3.00;;;;;11.65;100.00;99596.00;4988306;28;45824;-69
2023/03/14 07:11:14;;;;;;;;;2.00;2.00;;;;;11.73;100.00;99600.25;4984712;28;45620;-70
2023/03/14 07:13:40;;;;;;;;;6.00;4.67;;;;;11.77;100.00;99604.19;4990554;28;45750;-71
2023/03/14 07:16:07;;;;;;;;;3.00;2.33;;;;;11.79;100.00;99614.94;4999826;28;45825;-71
2023/03/14 07:18:32;;;;;;;;;5.00;3.33;;;;;11.88;100.00;99612.63;4993097;28;46488;-71
2023/03/14 07:20:58;;;;;;;;;1.00;0.00;;;;;11.69;100.00;99599.09;5001203;28;45866;-74
2023/03/14 07:23:23;;;;;;;;;2.67;2.00;;;;;11.80;100.00;99633.91;4998001;28;45541;-73
2023/03/14 07:25:50;;;;;;;;;1.00;1.00;;;;;11.74;100.00;99637.66;4994050;28;46215;-73
2023/03/14 07:28:16;;;;;;;;;2.00;2.00;;;;;11.73;100.00;99649.69;5008622;28;45961;-73
2023/03/14 07:30:41;;;;;;;;;6.00;3.00;;;;;11.68;100.00;99652.34;5011629;28;45497;-71
2023/03/14 07:33:07;;;;;;;;;2.67;2.00;;;;;11.64;100.00;99660.22;5004144;28;45937;-74
2023/03/14 07:35:32;;;;;;;;;3.00;1.67;;;;;11.67;100.00;99667.16;5008202;28;46033;-74
2023/03/14 07:37:57;;;;;;;;;2.67;2.00;;;;;11.70;100.00;99671.34;5005606;28;45665;-75
2023/03/14 07:40:23;;;;;;;;;3.33;2.33;;;;;11.74;100.00;99680.78;5011255;28;45216;-75
2023/03/14 07:42:49;;;;;;;;;5.00;2.33;;;;;11.74;100.00;99684.34;5011890;28;46103;-76
2023/03/14 07:45:15;;;;;;;;;2.67;2.00;;;;;11.76;100.00;99708.81;4991533;28;46043;-79
2023/03/14 07:47:40;;;;;;;;;1.67;0.00;;;;;11.69;100.00;99695.22;5013358;28;45487;-79
2023/03/14 07:50:06;;;;;;;;;4.00;4.00;;;;;11.63;100.00;99707.16;5006948;28;45819;-78
2023/03/14 07:52:32;;;;;;;;;3.00;1.67;;;;;11.54;100.00;99689.38;5018310;28;45380;-77
2023/03/14 07:54:57;;;;;;;;;2.00;2.00;;;;;11.54;100.00;99708.59;5013809;28;45542;-76
2023/03/14 07:57:23;;;;;;;;;2.67;2.33;;;;;11.47;100.00;99717.81;5013311;28;45429;-70
2023/03/14 07:59:49;;;;;;;;;2.67;2.00;;;;;11.49;100.00;99723.88;5010865;28;45735;-76
2023/03/14 08:02:15;;;;;;;;;2.67;2.67;;;;;11.60;100.00;99729.59;5015545;28;45458;-75
2023/03/14 08:04:43;;;;;;;;;2.00;2.00;;;;;11.55;100.00;99746.00;5020708;28;46957;-77
2023/03/14 08:07:08;;;;;;;;;2.33;2.00;;;;;11.47;100.00;99734.28;5014718;28;46058;-75
2023/03/14 08:09:33;;;;;;;;;3.00;2.00;;;;;11.47;100.00;99750.75;5019239;28;45777;-78
2023/03/14 08:11:59;;;;;;;;;2.00;1.00;;;;;11.61;100.00;99748.59;5014721;28;46012;-75
2023/03/14 08:14:24;;;;;;;;;6.33;3.00;;;;;11.57;100.00;99746.56;5028095;28;45607;-74
2023/03/14 08:16:51;;;;;;;;;7.00;4.00;;;;;11.61;100.00;99761.50;5016548;28;46379;-76
2023/03/14 08:19:16;;;;;;;;;1.33;1.00;;;;;11.61;100.00;99767.00;4982929;28;45429;-77
2023/03/14 08:21:42;;;;;;;;;2.33;2.00;;;;;11.61;100.00;99767.00;5021203;28;45438;-76
2023/03/14 08:24:08;;;;;;;;;3.67;0.00;;;;;11.64;100.00;99770.06;5013793;28;45874;-76
2023/03/14 08:26:33;;;;;;;;;6.00;2.67;;;;;11.68;100.00;99775.94;5020361;28;45430;-76
2023/03/14 08:28:58;;;;;;;;;4.00;2.00;;;;;11.72;100.00;99784.53;5017684;28;45410;-76
2023/03/14 08:31:24;;;;;;;;;3.33;3.00;;;;;11.67;100.00;99779.75;5008411;28;45866;-76
2023/03/14 08:33:51;;;;;;;;;3.67;1.33;;;;;11.71;100.00;99805.69;5019242;28;45478;-76
2023/03/14 08:36:18;;;;;;;;;3.33;1.33;;;;;11.76;100.00;99802.22;5007199;28;47068;-75
2023/03/14 08:38:43;;;;;;;;;5.33;3.00;;;;;11.76;100.00;99783.81;5001242;28;45309;-77
2023/03/14 08:41:09;;;;;;;;;5.00;2.00;;;;;11.95;100.00;99802.94;4996756;28;45640;-77
2023/03/14 08:43:35;;;;;;;;;1.33;1.33;;;;;12.08;100.00;99824.66;5009654;28;45422;-76
2023/03/14 08:46:01;;;;;;;;;1.00;1.00;;;;;12.19;100.00;99820.22;4999967;28;45194;-78
2023/03/14 08:48:29;;;;;;;;;3.00;1.00;;;;;12.31;100.00;99814.69;5001813;28;45322;-76
2023/03/14 08:50:55;;;;;;;;;3.00;2.00;;;;;12.47;100.00;99816.69;4983697;28;45777;-77
2023/03/14 08:53:22;;;;;;;;;4.00;3.00;;;;;12.81;100.00;99835.19;5004532;28;46643;-77
2023/03/14 08:55:51;;;;;;;;;4.00;1.33;;;;;13.15;100.00;99835.25;4997860;28;45380;-76
2023/03/14 08:58:16;;;;;;;;;5.67;3.00;;;;;13.60;100.00;99842.66;4990566;28;45403;-75
2023/03/14 09:00:41;;;;;;;;;3.33;2.33;;;;;14.00;100.00;99829.75;4988082;28;45415;-75
2023/03/14 09:03:07;;;;;;;;;3.67;1.00;;;;;13.99;100.00;99830.81;4990888;28;45585;-76
2023/03/14 09:05:34;;;;;;;;;1.33;1.33;;;;;13.83;100.00;99844.41;4983501;28;48221;-77
2023/03/14 09:07:59;;;;;;;;;4.00;1.00;;;;;13.63;100.00;99841.31;4994728;28;45464;-75
2023/03/14 09:10:25;;;;;;;;;5.33;2.33;;;;;13.47;100.00;99854.00;5002037;28;45376;-76
2023/03/14 09:12:50;;;;;;;;;1.67;0.67;;;;;13.17;100.00;99857.88;4997953;28;45628;-76
2023/03/14 09:15:16;;;;;;;;;1.67;0.33;;;;;12.98;100.00;99874.59;4992655;28;46108;-76
2023/03/14 09:17:43;;;;;;;;;1.33;1.33;;;;;13.12;100.00;99891.66;4997319;28;45490;-76
2023/03/14 09:20:09;;;;;;;;;2.33;0.33;;;;;13.20;100.00;99901.41;4995158;28;45312;-76
2023/03/14 09:22:35;;;;;;;;;3.33;1.67;;;;;13.13;100.00;99901.59;4980002;28;46209;-77
2023/03/14 09:25:02;;;;;;;;;3.00;0.67;;;;;13.04;100.00;99911.31;4993776;28;45804;-77
2023/03/14 09:27:28;;;;;;;;;1.00;1.00;;;;;13.17;100.00;99915.69;4994363;28;45838;-76
2023/03/14 09:29:53;;;;;;;;;0.00;0.00;;;;;13.29;100.00;99930.22;5003389;28;45749;-75
2023/03/14 09:32:18;;;;;;;;;0.67;0.00;;;;;13.19;100.00;99947.41;4994610;28;45664;-75
2023/03/14 09:34:44;;;;;;;;;0.67;0.67;;;;;13.08;100.00;99951.03;4984784;28;46075;-76
2023/03/14 09:37:09;;;;;;;;;0.00;0.00;;;;;12.99;100.00;99963.50;4982695;28;45400;-76
2023/03/14 09:39:35;;;;;;;;;1.00;1.00;;;;;13.03;100.00;99970.19;4997378;28;45722;-76
2023/03/14 09:42:07;;;;;;;;;0.33;0.00;;;;;13.38;100.00;99974.75;4992047;28;45549;-76
2023/03/14 09:44:37;;;;;;;;;1.00;0.67;;;;;14.18;100.00;99969.25;4994612;28;45951;-76
2023/03/14 09:47:06;;;;;;;;;1.00;1.00;;;;;14.74;100.00;99974.75;4986188;28;45371;-76
2023/03/14 09:49:38;;;;;;;;;1.67;0.00;;;;;15.12;100.00;99973.00;4998355;28;46242;-75
2023/03/14 09:52:24;;;;;;;;;1.67;1.67;;;;;15.87;100.00;99995.41;4993822;28;45900;-76
2023/03/14 09:54:58;;;;;;;;;2.00;0.00;;;;;16.08;100.00;100007.47;4999726;28;46054;-77
2023/03/14 09:57:25;;;;;;;;;1.00;0.00;;;;;15.62;100.00;100027.19;4994181;28;45439;-77
2023/03/14 09:59:54;;;;;;;;;1.00;0.00;;;;;14.93;100.00;100009.25;4995903;28;45436;-75
2023/03/14 10:02:22;;;;;;;;;0.33;0.33;;;;;14.53;100.00;100032.38;4996575;28;45410;-75
2023/03/14 10:04:50;;;;;;;;;0.00;0.00;;;;;14.24;100.00;100035.25;4992404;28;47928;-75
2023/03/14 10:07:21;;;;;;;;;2.00;0.33;;;;;14.14;100.00;100035.06;4992515;28;45324;-76
2023/03/14 10:09:51;;;;;;;;;1.67;0.33;;;;;14.13;100.00;100038.91;4981751;28;46201;-78
2023/03/14 10:12:18;;;;;;;;;1.00;0.00;;;;;14.23;100.00;100041.84;4981067;28;46018;-75
2023/03/14 10:14:53;;;;;;;;;0.00;0.00;;;;;14.29;100.00;100049.13;4997617;28;45357;-74
2023/03/14 10:17:20;;;;;;;;;0.33;0.00;;;;;14.36;100.00;100053.66;4997876;28;45998;-76
2023/03/14 10:19:59;;;;;;;;;1.00;1.00;;;;;14.76;100.00;100041.56;4988240;28;45526;-75
2023/03/14 10:22:34;;;;;;;;;0.33;0.00;;;;;14.99;100.00;100062.63;4998003;28;45344;-76
2023/03/14 10:25:04;;;;;;;;;1.33;0.00;;;;;15.02;100.00;100062.09;4991640;28;45670;-76
2023/03/14 10:27:33;;;;;;;;;2.00;0.67;;;;;15.65;100.00;100073.66;4995185;28;45569;-76
2023/03/14 10:30:05;;;;;;;;;3.00;0.00;;;;;16.93;100.00;100049.06;4981158;28;45278;-75
2023/03/14 10:32:34;;;;;;;;;1.00;0.00;;;;;18.25;100.00;100071.09;4996760;28;45646;-76
2023/03/14 10:35:15;;;;;;;;;0.00;0.00;;;;;19.39;97.73;100060.66;4989064;28;46109;-76
2023/03/14 10:38:11;;;;;;;;;2.00;1.00;;;;;20.33;93.13;100065.38;4989699;28;45443;-74
2023/03/14 10:40:40;;;;;;;;;1.25;1.25;;;;;21.01;83.53;100065.59;4985504;28;45734;-77
2023/03/14 10:43:14;;;;;;;;;0.25;0.00;;;;;21.78;78.17;100071.09;4996220;28;45250;-76
2023/03/14 10:45:43;;;;;;;;;0.25;0.00;;;;;22.08;73.32;100070.91;4988378;28;45411;-76
2023/03/14 10:48:14;;;;;;;;;1.00;1.00;;;;;22.04;71.88;100065.13;4989222;28;45529;-78
2023/03/14 10:50:57;;;;;;;;;1.75;0.75;;;;;21.67;66.86;100067.59;4986356;28;45538;-75
2023/03/14 10:53:24;;;;;;;;;1.00;1.00;;;;;22.07;63.45;100070.09;4979215;28;45469;-76
2023/03/14 10:55:50;;;;;;;;;4.00;1.75;;;;;21.86;61.79;100073.19;4992490;28;45683;-78
2023/03/14 10:58:18;;;;;;;;;1.00;1.00;;;;;21.75;62.71;100080.06;4990720;28;45375;-76
2023/03/14 11:00:49;;;;;;;;;0.00;0.00;;;;;21.75;61.08;100074.47;4989005;28;45399;-78
2023/03/14 11:03:16;;;;;;;;;0.25;0.00;;;;;21.68;61.87;100096.34;4989085;28;45585;-77
2023/03/14 11:06:06;;;;;;;;;1.00;0.00;;;;;21.66;62.35;100081.84;4975316;28;46430;-79
2023/03/14 11:08:53;;;;;;;;;0.00;0.00;;;;;21.58;60.28;100108.44;4995607;28;45569;-77
2023/03/14 11:11:30;;;;;;;;;0.00;0.00;;;;;21.19;60.69;100098.28;4979878;28;45437;-80
2023/03/14 11:14:14;;;;;;;;;1.00;0.25;;;;;20.92;61.66;100110.84;5001124;28;45487;-83
2023/03/14 11:16:42;;;;;;;;;1.75;1.75;;;;;20.55;59.85;100106.69;4995641;28;46834;-79
2023/03/14 11:19:25;;;;;;;;;1.00;1.00;;;;;20.27;60.35;100114.72;4981622;28;45902;-79
2023/03/14 11:22:20;;;;;;;;;1.75;1.00;;;;;20.19;60.90;100122.84;4993671;28;45308;-79
2023/03/14 11:24:56;;;;;;;;;0.00;0.00;;;;;19.91;59.43;100117.72;4988500;28;45374;-77
2023/03/14 11:27:44;;;;;;;;;2.00;0.33;;;;;19.28;59.58;100120.16;4999682;28;46373;-80